Minerva Concert — SVWC — position and weather

sailwx.info

Track history (hours):
 
Tides and Currents Weather Stations Pressure Air Temp Water Temp Dewpoint Dewpoint Depression Visibility Wind Speed Wind Dir Waves Ship Positions

Minerva Concert

Last reported at 2015-Jun-30 02:33 UTC. Time now 2015-Jun-30 03:33 UTC.
Position N 38°42' E 009°31'.

Length 233 m; draft 8.2 m.

Type: Tanker. MMSI: 240110000.

Date/timePositionNaut miles runAvg speedWind from/ knotsBaromVisibWave heightAir tempDewpointWater temp
2015-Jun-30 02:33N 38°42' E 009°31'1 0.4
2015-Jun-30 00:18N 38°42' E 009°30'0 0.2
2015-Jun-29 23:33N 38°42' E 009°30'0 0.1
2015-Jun-29 22:33N 38°42' E 009°30'1 1.0
2015-Jun-29 21:33N 38°43' E 009°30'9 8.8
2015-Jun-29 20:33N 38°50' E 009°24'1212.1
2015-Jun-29 19:33N 38°60' E 009°14'1010.2
2015-Jun-29 18:34N 39°05' E 009°04'0 0.4
2015-Jun-29 17:30N 39°05' E 009°03'0 0.0
2015-Jun-29 16:24N 39°05' E 009°03'0 0.0
2015-Jun-29 15:30N 39°05' E 009°03'0 0.0
2015-Jun-29 14:30N 39°05' E 009°03'0 0.0
2015-Jun-29 13:24N 39°05' E 009°03'0 0.0
2015-Jun-29 12:27N 39°05' E 009°03'0 0.0
2015-Jun-29 11:30N 39°05' E 009°03'0 0.0
2015-Jun-29 10:30N 39°05' E 009°03'0 0.0
2015-Jun-29 09:33N 39°05' E 009°03'0 0.0
2015-Jun-29 08:30N 39°05' E 009°03'0 0.0
2015-Jun-29 06:33N 39°05' E 009°03'0 0.0
2015-Jun-29 05:33N 39°05' E 009°03'0 0.0
2015-Jun-29 04:33N 39°05' E 009°03'0 0.0
2015-Jun-29 03:33N 39°05' E 009°03'0 0.0
2015-Jun-29 02:33N 39°05' E 009°03'0 0.0
2015-Jun-29 01:30N 39°05' E 009°03'0 0.0
2015-Jun-29 00:33N 39°05' E 009°03'0 0.0
2015-Jun-28 23:33N 39°05' E 009°03'0 0.0
2015-Jun-28 22:33N 39°05' E 009°03'0 0.0
2015-Jun-28 21:33N 39°05' E 009°03'0 0.0
2015-Jun-28 20:33N 39°05' E 009°03'0 0.0
2015-Jun-28 19:33N 39°05' E 009°03'0 0.0
2015-Jun-28 18:33N 39°05' E 009°03'0 0.0
2015-Jun-28 17:33N 39°05' E 009°03'0 0.0
2015-Jun-28 16:33N 39°05' E 009°03'0 0.0
2015-Jun-28 15:33N 39°05' E 009°03'0 0.0
2015-Jun-28 14:33N 39°05' E 009°03'0 0.0
2015-Jun-28 13:33N 39°05' E 009°03'0 0.0
2015-Jun-28 12:33N 39°05' E 009°03'0 0.0
2015-Jun-28 11:33N 39°05' E 009°03'0 0.0
2015-Jun-28 10:33N 39°05' E 009°03'0 0.0
2015-Jun-28 09:33N 39°05' E 009°03'0 0.0
2015-Jun-28 08:33N 39°05' E 009°03'0 0.0
2015-Jun-28 07:33N 39°05' E 009°03'2 1.8
2015-Jun-28 06:33N 39°05' E 009°05'3 2.8
2015-Jun-28 05:33N 39°04' E 009°09'0 0.3
2015-Jun-28 04:33N 39°04' E 009°09'3 3.4
2015-Jun-28 03:33N 39°01' E 009°11'6 6.5
2015-Jun-28 02:33N 38°55' E 009°15'8 8.0
2015-Jun-28 01:34N 38°49' E 009°22'1212.0
2015-Jun-28 00:33N 38°40' E 009°32'1212.0
2015-Jun-27 23:33N 38°31' E 009°43'1211.8
2015-Jun-27 22:33N 38°23' E 009°53'1211.9
2015-Jun-27 21:33N 38°14' E 010°04'3712.1
2015-Jun-27 18:29N 37°47' E 010°36'1111.6
2015-Jun-27 17:33N 37°40' E 010°47'3811.8
2015-Jun-27 14:17N 37°20' E 011°28'2211.9
2015-Jun-27 12:26N 37°09' E 011°52'1011.8
2015-Jun-27 11:33N 37°04' E 012°04'1111.4
2015-Jun-27 10:34N 37°01' E 012°17'1211.9
2015-Jun-27 09:33N 36°56' E 012°31'1212.0
2015-Jun-27 08:33N 36°52' E 012°45'1212.1
2015-Jun-27 07:33N 36°47' E 012°59'1212.3
2015-Jun-27 06:33N 36°42' E 013°13'1212.3
2015-Jun-27 05:34N 36°37' E 013°27'1312.6
2015-Jun-27 04:33N 36°32' E 013°41'1312.7
2015-Jun-27 03:34N 36°27' E 013°56'1312.5
2015-Jun-27 02:33N 36°26' E 014°11'1312.6
2015-Jun-27 01:33N 36°25' E 014°27'1312.4
2015-Jun-27 00:33N 36°24' E 014°43'1212.3
2015-Jun-26 23:33N 36°23' E 014°58'46210.4
2015-Jun-25 03:09N 37°40' E 024°28'  
2015-Jun-21 22:33N 43°23' E 034°19'1211.9
2015-Jun-21 21:33N 43°28' E 034°34'1212.3
2015-Jun-21 20:33N 43°33' E 034°49'1312.6
2015-Jun-21 19:33N 43°39' E 035°05'1212.4
2015-Jun-21 18:33N 43°44' E 035°21'1212.3
2015-Jun-21 17:33N 43°49' E 035°36'1211.9
2015-Jun-21 16:33N 43°54' E 035°51'1312.0
2015-Jun-21 15:31N 43°60' E 036°07'1212.2
2015-Jun-21 14:32N 44°05' E 036°22'1212.3
2015-Jun-21 13:32N 44°10' E 036°37'2412.0
2015-Jun-21 11:32N 44°21' E 037°07'1212.0
2015-Jun-21 10:33N 44°26' E 037°22'1211.9
2015-Jun-21 09:33N 44°33' E 037°36'6 6.5
2015-Jun-21 08:33N 44°37' E 037°43'0 0.4
2015-Jun-21 07:33N 44°37' E 037°43'1 0.8
2015-Jun-21 06:33N 44°37' E 037°42'1 0.8
2015-Jun-21 05:33N 44°37' E 037°43'1 0.7
2015-Jun-21 04:33N 44°37' E 037°44'3 2.8
2015-Jun-21 03:33N 44°36' E 037°48'5 4.9
2015-Jun-21 02:33N 44°35' E 037°55'0 0.1
2015-Jun-21 01:33N 44°35' E 037°55'0 0.0
2015-Jun-21 00:33N 44°35' E 037°55'0 0.0
2015-Jun-20 23:33N 44°35' E 037°55'0 0.0
2015-Jun-20 22:33N 44°35' E 037°55'0 0.0
2015-Jun-20 21:33N 44°35' E 037°54'0 0.0
2015-Jun-20 20:34N 44°35' E 037°55'2 1.9
2015-Jun-20 19:34N 44°35' E 037°52'5 4.8
2015-Jun-20 18:33N 44°36' E 037°46'2 2.2
2015-Jun-20 17:33N 44°37' E 037°43'1 0.6
2015-Jun-20 16:33N 44°37' E 037°42'4 3.9
2015-Jun-20 15:33N 44°36' E 037°36'2 1.6
2015-Jun-20 14:33N 44°38' E 037°37'0 0.0
2015-Jun-20 13:33N 44°38' E 037°37'0 0.0
2015-Jun-20 12:30N 44°38' E 037°37'0 0.0
2015-Jun-20 11:33N 44°38' E 037°37'  
Track history (hours):
 
Tides and Currents Weather Stations Pressure Air Temp Water Temp Dewpoint Dewpoint Depression Visibility Wind Speed Wind Dir Waves Ship Positions

Minerva Concert

Last reported at 2015-Jun-30 02:33 UTC. Time now 2015-Jun-30 03:33 UTC.
Position N 38°42' E 009°31'.

Length 233 m; draft 8.2 m.

Type: Tanker. MMSI: 240110000.

Date/timePositionNaut miles runAvg speedWind from/ knotsBaromVisibWave heightAir tempDewpointWater temp
2015-Jun-30 02:33N 38°42' E 009°31'1 0.4
2015-Jun-30 00:18N 38°42' E 009°30'0 0.2
2015-Jun-29 23:33N 38°42' E 009°30'0 0.1
2015-Jun-29 22:33N 38°42' E 009°30'1 1.0
2015-Jun-29 21:33N 38°43' E 009°30'9 8.8
2015-Jun-29 20:33N 38°50' E 009°24'1212.1
2015-Jun-29 19:33N 38°60' E 009°14'1010.2
2015-Jun-29 18:34N 39°05' E 009°04'0 0.4
2015-Jun-29 17:30N 39°05' E 009°03'0 0.0
2015-Jun-29 16:24N 39°05' E 009°03'0 0.0
2015-Jun-29 15:30N 39°05' E 009°03'0 0.0
2015-Jun-29 14:30N 39°05' E 009°03'0 0.0
2015-Jun-29 13:24N 39°05' E 009°03'0 0.0
2015-Jun-29 12:27N 39°05' E 009°03'0 0.0
2015-Jun-29 11:30N 39°05' E 009°03'0 0.0
2015-Jun-29 10:30N 39°05' E 009°03'0 0.0
2015-Jun-29 09:33N 39°05' E 009°03'0 0.0
2015-Jun-29 08:30N 39°05' E 009°03'0 0.0
2015-Jun-29 06:33N 39°05' E 009°03'0 0.0
2015-Jun-29 05:33N 39°05' E 009°03'0 0.0
2015-Jun-29 04:33N 39°05' E 009°03'0 0.0
2015-Jun-29 03:33N 39°05' E 009°03'0 0.0
2015-Jun-29 02:33N 39°05' E 009°03'0 0.0
2015-Jun-29 01:30N 39°05' E 009°03'0 0.0
2015-Jun-29 00:33N 39°05' E 009°03'0 0.0
2015-Jun-28 23:33N 39°05' E 009°03'0 0.0
2015-Jun-28 22:33N 39°05' E 009°03'0 0.0
2015-Jun-28 21:33N 39°05' E 009°03'0 0.0
2015-Jun-28 20:33N 39°05' E 009°03'0 0.0
2015-Jun-28 19:33N 39°05' E 009°03'0 0.0
2015-Jun-28 18:33N 39°05' E 009°03'0 0.0
2015-Jun-28 17:33N 39°05' E 009°03'0 0.0
2015-Jun-28 16:33N 39°05' E 009°03'0 0.0
2015-Jun-28 15:33N 39°05' E 009°03'0 0.0
2015-Jun-28 14:33N 39°05' E 009°03'0 0.0
2015-Jun-28 13:33N 39°05' E 009°03'0 0.0
2015-Jun-28 12:33N 39°05' E 009°03'0 0.0
2015-Jun-28 11:33N 39°05' E 009°03'0 0.0
2015-Jun-28 10:33N 39°05' E 009°03'0 0.0
2015-Jun-28 09:33N 39°05' E 009°03'0 0.0
2015-Jun-28 08:33N 39°05' E 009°03'0 0.0
2015-Jun-28 07:33N 39°05' E 009°03'2 1.8
2015-Jun-28 06:33N 39°05' E 009°05'3 2.8
2015-Jun-28 05:33N 39°04' E 009°09'0 0.3
2015-Jun-28 04:33N 39°04' E 009°09'3 3.4
2015-Jun-28 03:33N 39°01' E 009°11'6 6.5
2015-Jun-28 02:33N 38°55' E 009°15'8 8.0
2015-Jun-28 01:34N 38°49' E 009°22'1212.0
2015-Jun-28 00:33N 38°40' E 009°32'1212.0
2015-Jun-27 23:33N 38°31' E 009°43'1211.8
2015-Jun-27 22:33N 38°23' E 009°53'1211.9
2015-Jun-27 21:33N 38°14' E 010°04'3712.1
2015-Jun-27 18:29N 37°47' E 010°36'1111.6
2015-Jun-27 17:33N 37°40' E 010°47'3811.8
2015-Jun-27 14:17N 37°20' E 011°28'2211.9
2015-Jun-27 12:26N 37°09' E 011°52'1011.8
2015-Jun-27 11:33N 37°04' E 012°04'1111.4
2015-Jun-27 10:34N 37°01' E 012°17'1211.9
2015-Jun-27 09:33N 36°56' E 012°31'1212.0
2015-Jun-27 08:33N 36°52' E 012°45'1212.1
2015-Jun-27 07:33N 36°47' E 012°59'1212.3
2015-Jun-27 06:33N 36°42' E 013°13'1212.3
2015-Jun-27 05:34N 36°37' E 013°27'1312.6
2015-Jun-27 04:33N 36°32' E 013°41'1312.7
2015-Jun-27 03:34N 36°27' E 013°56'1312.5
2015-Jun-27 02:33N 36°26' E 014°11'1312.6
2015-Jun-27 01:33N 36°25' E 014°27'1312.4
2015-Jun-27 00:33N 36°24' E 014°43'1212.3
2015-Jun-26 23:33N 36°23' E 014°58'46210.4
2015-Jun-25 03:09N 37°40' E 024°28'  
2015-Jun-21 22:33N 43°23' E 034°19'1211.9
2015-Jun-21 21:33N 43°28' E 034°34'1212.3
2015-Jun-21 20:33N 43°33' E 034°49'1312.6
2015-Jun-21 19:33N 43°39' E 035°05'1212.4
2015-Jun-21 18:33N 43°44' E 035°21'1212.3
2015-Jun-21 17:33N 43°49' E 035°36'1211.9
2015-Jun-21 16:33N 43°54' E 035°51'1312.0
2015-Jun-21 15:31N 43°60' E 036°07'1212.2
2015-Jun-21 14:32N 44°05' E 036°22'1212.3
2015-Jun-21 13:32N 44°10' E 036°37'2412.0
2015-Jun-21 11:32N 44°21' E 037°07'1212.0
2015-Jun-21 10:33N 44°26' E 037°22'1211.9
2015-Jun-21 09:33N 44°33' E 037°36'6 6.5
2015-Jun-21 08:33N 44°37' E 037°43'0 0.4
2015-Jun-21 07:33N 44°37' E 037°43'1 0.8
2015-Jun-21 06:33N 44°37' E 037°42'1 0.8
2015-Jun-21 05:33N 44°37' E 037°43'1 0.7
2015-Jun-21 04:33N 44°37' E 037°44'3 2.8
2015-Jun-21 03:33N 44°36' E 037°48'5 4.9
2015-Jun-21 02:33N 44°35' E 037°55'0 0.1
2015-Jun-21 01:33N 44°35' E 037°55'0 0.0
2015-Jun-21 00:33N 44°35' E 037°55'0 0.0
2015-Jun-20 23:33N 44°35' E 037°55'0 0.0
2015-Jun-20 22:33N 44°35' E 037°55'0 0.0
2015-Jun-20 21:33N 44°35' E 037°54'0 0.0
2015-Jun-20 20:34N 44°35' E 037°55'2 1.9
2015-Jun-20 19:34N 44°35' E 037°52'5 4.8
2015-Jun-20 18:33N 44°36' E 037°46'2 2.2
2015-Jun-20 17:33N 44°37' E 037°43'1 0.6
2015-Jun-20 16:33N 44°37' E 037°42'4 3.9
2015-Jun-20 15:33N 44°36' E 037°36'2 1.6
2015-Jun-20 14:33N 44°38' E 037°37'0 0.0
2015-Jun-20 13:33N 44°38' E 037°37'0 0.0
2015-Jun-20 12:30N 44°38' E 037°37'0 0.0
2015-Jun-20 11:33N 44°38' E 037°37'  

Dump ship's entire track history